Time;durP1;ratioP1;P1;durP2;ratioP2;P2;SDS_P1;SDS_P2;PMS_P1;PMS_P2;Temp;Humidity;BMP_temperature;BMP_pressure;BME280_temperature;BME280_humidity;BME280_pressure;Samples;Min_cycle;Max_cycle;Signal;HPM_P1;HPM_P2
2022/01/27 00:06:05;;;;;;;8.37;6.30;;;;;;;-0.31;64.94;95590.03;5087623;28;20231;-62
2022/01/27 00:08:46;;;;;;;7.53;6.20;;;;;;;-0.25;65.08;95581.97;5074557;28;20270;-61
2022/01/27 00:11:14;;;;;;;6.63;5.33;;;;;;;-0.27;64.90;95592.41;5084078;28;20250;-62
2022/01/27 00:13:48;;;;;;;8.00;6.10;;;;;;;-0.33;65.46;95591.84;5089203;28;20223;-63
2022/01/27 00:16:22;;;;;;;7.17;6.20;;;;;;;-0.26;65.15;95583.72;5085195;28;20240;-63
2022/01/27 00:18:49;;;;;;;7.57;5.87;;;;;;;-0.28;65.15;95592.47;5074773;28;20278;-61
2022/01/27 00:21:18;;;;;;;7.00;6.20;;;;;;;-0.32;65.53;95585.75;5069343;28;20266;-62
2022/01/27 00:23:45;;;;;;;6.90;5.87;;;;;;;-0.27;65.86;95591.53;5069669;28;20235;-64
2022/01/27 00:26:15;;;;;;;6.93;5.73;;;;;;;-0.33;65.75;95584.94;5071046;28;20232;-63
2022/01/27 00:28:41;;;;;;;6.83;5.80;;;;;;;-0.27;65.47;95579.50;5072881;28;20225;-60
2022/01/27 00:31:07;;;;;;;6.50;5.43;;;;;;;-0.24;65.52;95588.84;5074988;28;20223;-62
2022/01/27 00:33:34;;;;;;;8.57;5.90;;;;;;;-0.29;65.57;95578.72;5090717;28;20228;-62
2022/01/27 00:36:00;;;;;;;6.80;5.87;;;;;;;-0.21;65.59;95578.34;5085500;28;20223;-62
2022/01/27 00:38:25;;;;;;;8.60;5.90;;;;;;;-0.28;65.82;95589.88;5067257;28;20231;-61
2022/01/27 00:40:51;;;;;;;7.63;5.70;;;;;;;-0.22;65.77;95579.25;5149469;27;20280;-61
2022/01/27 00:43:17;;;;;;;8.00;5.93;;;;;;;-0.23;66.01;95577.59;5138861;27;20234;-61
2022/01/27 00:45:43;;;;;;;6.43;5.70;;;;;;;-0.18;65.47;95577.38;5141398;27;20217;-60
2022/01/27 00:48:08;;;;;;;7.10;5.97;;;;;;;-0.22;65.27;95584.41;5140735;27;20198;-60
2022/01/27 00:50:36;;;;;;;7.03;5.33;;;;;;;-0.22;65.14;95569.75;5139780;27;20231;-63
2022/01/27 00:53:05;;;;;;;6.33;5.00;;;;;;;-0.13;64.94;95575.41;5156252;27;20215;-64
2022/01/27 00:55:38;;;;;;;6.03;5.20;;;;;;;-0.20;65.04;95580.03;5142134;27;20319;-60
2022/01/27 01:00:36;;;;;;;6.20;4.83;;;;;;;-0.24;65.31;95586.25;5143143;27;20202;-63
2022/01/27 01:03:10;;;;;;;5.50;4.83;;;;;;;-0.21;65.23;95570.59;5138425;27;20249;-64
2022/01/27 01:16:26;;;;;;;5.93;4.70;;;;;;;-0.11;64.78;95561.47;5138995;27;20229;-62
2022/01/27 01:19:06;;;;;;;5.97;5.23;;;;;;;-0.18;65.33;95560.13;5139590;27;20245;-61
2022/01/27 01:30:22;;;;;;;6.13;4.90;;;;;;;-0.15;64.65;95559.97;5059598;28;20338;-61
2022/01/27 01:35:14;;;;;;;8.10;5.00;;;;;;;-0.03;63.57;95563.69;5059505;28;20295;-61
2022/01/27 01:37:42;;;;;;;6.53;4.37;;;;;;;-0.07;63.79;95554.44;5058822;28;20221;-62
2022/01/27 01:40:11;;;;;;;5.47;4.43;;;;;;;-0.15;64.21;95559.13;5059597;28;20233;-62
2022/01/27 01:42:37;;;;;;;6.07;4.87;;;;;;;-0.13;63.85;95560.72;5039978;28;20284;-62
2022/01/27 01:45:05;;;;;;;5.83;4.90;;;;;;;-0.19;63.76;95555.84;5042838;28;20212;-62
2022/01/27 01:47:30;;;;;;;5.37;4.17;;;;;;;-0.17;64.00;95556.59;5042036;28;20229;-61
2022/01/27 01:49:56;;;;;;;4.83;4.33;;;;;;;-0.19;63.75;95552.41;5042934;28;20251;-62
2022/01/27 01:52:22;;;;;;;6.03;4.50;;;;;;;-0.09;63.64;95551.06;5058074;28;20236;-61
2022/01/27 01:54:47;;;;;;;5.60;4.23;;;;;;;-0.23;63.75;95536.22;5040362;28;20205;-61
2022/01/27 01:57:13;;;;;;;4.77;3.87;;;;;;;-0.09;63.72;95527.81;5043640;28;20209;-62
2022/01/27 01:59:38;;;;;;;3.87;3.07;;;;;;;-0.09;63.52;95533.81;5067243;28;20234;-61
2022/01/27 02:02:04;;;;;;;4.03;3.20;;;;;;;-0.21;64.00;95534.41;5063492;28;20227;-61
2022/01/27 02:04:30;;;;;;;4.13;3.50;;;;;;;-0.12;63.79;95538.31;5065238;28;20311;-61
2022/01/27 02:06:59;;;;;;;4.63;3.67;;;;;;;-0.15;63.57;95538.44;5098149;27;20256;-63
2022/01/27 02:10:03;;;;;;;5.50;3.53;;;;;;;-0.04;63.71;95528.41;5146190;27;20202;-61
2022/01/27 02:17:59;;;;;;;6.50;3.60;;;;;;;-0.17;63.80;95529.94;5125542;28;20217;-61
2022/01/27 02:20:25;;;;;;;5.73;3.67;;;;;;;-0.16;63.94;95523.84;5122561;27;20238;-62
2022/01/27 02:22:51;;;;;;;4.43;3.20;;;;;;;-0.16;64.17;95519.53;5122805;28;20238;-61
2022/01/27 02:25:17;;;;;;;4.10;3.20;;;;;;;-0.24;64.10;95514.72;5120281;28;20223;-61
2022/01/27 02:27:44;;;;;;;4.47;3.40;;;;;;;-0.15;64.14;95516.03;5124138;27;20227;-63
2022/01/27 02:30:10;;;;;;;4.77;3.53;;;;;;;-0.18;64.43;95518.75;5145109;27;20248;-62
2022/01/27 02:32:36;;;;;;;3.87;3.40;;;;;;;-0.15;64.63;95515.19;5143956;27;20210;-62
2022/01/27 02:35:02;;;;;;;3.47;3.07;;;;;;;-0.06;64.03;95517.31;5142564;27;20258;-63
2022/01/27 02:37:28;;;;;;;5.43;3.43;;;;;;;-0.02;63.95;95514.50;5144427;27;20434;-62
2022/01/27 02:39:54;;;;;;;5.13;3.40;;;;;;;-0.12;64.34;95523.63;5143743;27;20246;-61
2022/01/27 02:42:29;;;;;;;5.07;2.73;;;;;;;-0.14;64.55;95516.84;5145210;27;20210;-63
2022/01/27 02:44:57;;;;;;;3.10;2.80;;;;;;;-0.17;64.89;95520.41;5142035;27;20241;-65
2022/01/27 02:47:25;;;;;;;3.27;2.90;;;;;;;-0.17;64.99;95528.19;5158255;27;20257;-62
2022/01/27 02:49:51;;;;;;;2.90;2.60;;;;;;;-0.16;65.11;95527.28;5143749;27;20225;-63
2022/01/27 02:52:16;;;;;;;3.00;2.80;;;;;;;-0.13;65.10;95523.72;5144575;27;20222;-64
2022/01/27 02:54:42;;;;;;;3.13;2.60;;;;;;;-0.07;65.22;95521.66;5142612;27;20214;-62
2022/01/27 02:57:08;;;;;;;3.20;2.60;;;;;;;-0.09;65.22;95518.28;5141530;27;20250;-65
2022/01/27 02:59:34;;;;;;;2.60;2.40;;;;;;;-0.06;65.15;95517.31;5143997;27;20214;-62
2022/01/27 03:02:00;;;;;;;3.23;2.80;;;;;;;-0.08;65.42;95522.56;5141006;27;20234;-62
2022/01/27 03:04:26;;;;;;;3.40;2.70;;;;;;;-0.06;65.84;95525.91;5140339;27;20219;-63
2022/01/27 03:06:52;;;;;;;3.03;2.73;;;;;;;0.02;65.34;95519.53;5143880;27;20294;-62
2022/01/27 03:09:18;;;;;;;3.27;2.70;;;;;;;-0.01;65.33;95523.94;5142752;27;20266;-62
2022/01/27 03:11:51;;;;;;;3.10;2.80;;;;;;;0.00;65.06;95527.38;5138891;27;20271;-65
2022/01/27 03:14:23;;;;;;;3.13;2.83;;;;;;;-0.05;65.21;95525.00;5139815;27;20227;-62
2022/01/27 03:16:52;;;;;;;4.17;2.83;;;;;;;0.01;65.09;95515.28;5142730;27;20279;-62
2022/01/27 03:19:17;;;;;;;2.83;2.57;;;;;;;0.03;64.91;95510.84;5140886;27;20226;-61
2022/01/27 03:21:43;;;;;;;3.60;2.87;;;;;;;0.02;64.91;95522.94;5140249;27;20305;-61
2022/01/27 03:24:09;;;;;;;2.90;2.60;;;;;;;0.05;65.04;95517.63;5144016;27;20198;-65
2022/01/27 03:26:35;;;;;;;4.13;2.93;;;;;;;0.02;64.93;95519.53;5141834;27;20218;-64
2022/01/27 03:29:00;;;;;;;3.30;3.00;;;;;;;0.05;65.10;95514.19;5141328;27;20270;-61
2022/01/27 03:31:27;;;;;;;3.10;2.80;;;;;;;0.07;64.73;95526.13;5160133;27;20282;-62
2022/01/27 03:33:53;;;;;;;2.80;2.50;;;;;;;0.08;64.73;95519.22;5143239;27;20218;-64
2022/01/27 03:36:19;;;;;;;2.90;2.70;;;;;;;0.09;64.92;95528.66;5140330;27;20199;-61
2022/01/27 03:38:45;;;;;;;3.03;2.73;;;;;;;0.03;65.02;95521.19;5140873;27;20285;-64
2022/01/27 03:41:12;;;;;;;3.17;2.57;;;;;;;0.08;64.59;95522.66;5142833;27;20237;-64
2022/01/27 03:43:39;;;;;;;3.30;3.00;;;;;;;0.07;64.63;95525.31;5142521;27;20230;-61
2022/01/27 03:46:06;;;;;;;3.70;3.00;;;;;;;0.05;65.05;95522.78;5143703;27;20222;-61
2022/01/27 03:48:32;;;;;;;2.93;2.63;;;;;;;0.09;64.93;95531.25;5142788;27;20206;-63
2022/01/27 03:50:58;;;;;;;3.13;2.83;;;;;;;0.08;65.01;95532.13;5141209;27;20210;-64
2022/01/27 03:53:24;;;;;;;3.20;2.70;;;;;;;0.01;64.96;95517.88;5142275;27;20218;-64
2022/01/27 03:55:50;;;;;;;3.03;2.60;;;;;;;0.09;65.03;95528.66;5140455;27;20214;-61
2022/01/27 03:58:15;;;;;;;2.87;2.67;;;;;;;0.20;64.36;95531.53;5141476;27;20229;-62
2022/01/27 04:00:41;;;;;;;2.70;2.40;;;;;;;0.18;64.33;95533.38;5143702;27;20206;-63
2022/01/27 04:03:09;;;;;;;2.80;2.60;;;;;;;0.13;64.82;95535.34;5143135;27;20227;-62
2022/01/27 04:05:38;;;;;;;3.20;2.90;;;;;;;0.08;64.85;95524.38;5139807;27;20218;-61
2022/01/27 04:08:06;;;;;;;3.53;2.70;;;;;;;0.13;64.34;95531.00;5142301;27;20226;-61
2022/01/27 04:10:32;;;;;;;2.90;2.70;;;;;;;0.11;64.67;95538.03;5140810;27;20241;-63
2022/01/27 04:12:58;;;;;;;3.27;2.80;;;;;;;0.19;64.26;95535.88;5141333;27;20240;-63
2022/01/27 04:15:24;;;;;;;2.90;2.67;;;;;;;0.11;64.51;95538.03;5143781;27;20210;-64
2022/01/27 04:17:50;;;;;;;3.33;3.03;;;;;;;0.07;64.59;95533.06;5141549;27;20293;-63
2022/01/27 04:20:16;;;;;;;2.37;2.17;;;;;;;0.07;64.59;95533.06;5140139;27;20309;-63
2022/01/27 04:22:42;;;;;;;2.77;2.57;;;;;;;0.07;65.00;95539.06;5143040;27;20222;-64
2022/01/27 04:25:08;;;;;;;2.60;2.40;;;;;;;0.02;65.29;95541.03;5140193;27;20223;-60
2022/01/27 04:27:37;;;;;;;3.07;2.77;;;;;;;0.12;65.04;95538.84;5139250;27;20501;-66
2022/01/27 04:30:05;;;;;;;3.50;3.10;;;;;;;0.02;65.29;95542.78;5143595;27;20259;-62
2022/01/27 04:32:39;;;;;;;3.30;3.00;;;;;;;0.06;65.09;95542.56;5139947;27;20230;-61
2022/01/27 04:35:11;;;;;;;3.20;2.90;;;;;;;0.02;65.58;95553.97;5138702;27;20218;-62
2022/01/27 04:37:41;;;;;;;3.90;3.50;;;;;;;-0.07;65.42;95549.25;5143440;27;20282;-62
2022/01/27 04:40:14;;;;;;;3.77;3.23;;;;;;;-0.08;65.47;95543.25;5156724;27;20226;-61
2022/01/27 04:43:09;;;;;;;3.57;3.27;;;;;;;-0.10;66.07;95547.66;5138591;27;20210;-61
2022/01/27 04:45:32;;;;;;;3.60;3.30;;;;;;;-0.03;65.79;95545.59;5138601;27;20248;-62
2022/01/27 04:48:08;;;;;;;3.90;3.50;;;;;;;-0.04;66.00;95555.09;5141714;27;20283;-62
2022/01/27 04:50:33;;;;;;;3.60;3.30;;;;;;;-0.07;66.26;95550.09;5141660;27;20221;-64
2022/01/27 04:53:01;;;;;;;4.03;3.70;;;;;;;-0.01;66.33;95547.19;5144963;27;20216;-61
2022/01/27 04:55:27;;;;;;;3.83;3.53;;;;;;;0.07;65.74;95554.59;5117971;27;20237;-61
2022/01/27 04:58:07;;;;;;;4.17;3.60;;;;;;;-0.01;65.67;95560.13;5121387;27;20211;-62
2022/01/27 05:00:33;;;;;;;3.70;3.33;;;;;;;-0.05;65.77;95557.78;5125754;27;20198;-62
2022/01/27 05:03:00;;;;;;;3.57;3.27;;;;;;;0.10;65.22;95571.69;5140329;27;20239;-61
2022/01/27 05:05:26;;;;;;;3.60;3.30;;;;;;;-0.05;65.82;95574.13;5140436;27;20222;-62
2022/01/27 05:08:01;;;;;;;4.60;4.17;;;;;;;-0.04;65.95;95573.19;5139559;27;20291;-62
2022/01/27 05:10:31;;;;;;;4.30;3.90;;;;;;;-0.09;66.09;95564.81;5137892;27;20221;-63
2022/01/27 05:13:06;;;;;;;5.93;3.83;;;;;;;-0.07;65.84;95578.53;5142578;27;20285;-65
2022/01/27 05:15:32;;;;;;;4.37;3.90;;;;;;;-0.12;66.23;95571.91;5136457;27;20225;-62
2022/01/27 05:17:57;;;;;;;3.90;3.50;;;;;;;-0.11;66.31;95573.56;5140188;27;20225;-63
2022/01/27 05:20:23;;;;;;;4.10;3.80;;;;;;;-0.08;66.60;95578.59;5139338;27;20240;-63
2022/01/27 05:22:48;;;;;;;4.20;3.80;;;;;;;-0.02;66.14;95581.72;5135691;27;20210;-64
2022/01/27 05:25:14;;;;;;;4.00;3.60;;;;;;;0.03;66.51;95585.81;5140606;27;20214;-63
2022/01/27 05:27:39;;;;;;;4.20;3.80;;;;;;;-0.05;66.48;95589.63;5141477;27;20227;-63
2022/01/27 05:30:06;;;;;;;4.63;4.10;;;;;;;-0.07;66.60;95583.69;5141066;28;20210;-63
2022/01/27 05:32:34;;;;;;;4.73;4.27;;;;;;;-0.05;66.75;95584.47;5137475;28;20281;-63
2022/01/27 05:35:00;;;;;;;4.27;3.90;;;;;;;-0.12;66.97;95583.06;5142242;27;20222;-62
2022/01/27 05:37:26;;;;;;;5.13;4.63;;;;;;;-0.13;67.05;95590.91;5143136;27;20226;-63
2022/01/27 05:39:51;;;;;;;4.97;4.23;;;;;;;-0.11;67.23;95602.84;5155508;27;20359;-62
2022/01/27 05:42:17;;;;;;;7.87;4.33;;;;;;;-0.22;67.35;95598.16;5141524;27;20217;-63
2022/01/27 05:44:42;;;;;;;4.57;4.07;;;;;;;-0.18;67.30;95591.13;5140551;27;20289;-62
2022/01/27 05:47:07;;;;;;;4.40;4.00;;;;;;;-0.19;67.94;95594.59;5158770;27;20282;-62
2022/01/27 05:49:33;;;;;;;5.67;5.17;;;;;;;-0.17;67.61;95600.53;5132831;27;20242;-62
2022/01/27 05:51:58;;;;;;;5.60;4.83;;;;;;;-0.10;67.75;95604.53;5122992;27;20247;-63
2022/01/27 05:54:24;;;;;;;6.00;4.80;;;;;;;-0.11;67.75;95594.25;5122621;28;20218;-63
2022/01/27 05:56:49;;;;;;;5.80;5.20;;;;;;;-0.11;67.73;95600.25;5121777;27;20227;-62
2022/01/27 05:59:15;;;;;;;5.70;4.97;;;;;;;-0.20;67.93;95602.44;5121360;27;20238;-62
2022/01/27 06:01:40;;;;;;;5.43;4.93;;;;;;;-0.19;67.98;95598.94;5121700;27;20226;-63
2022/01/27 06:04:06;;;;;;;6.90;5.80;;;;;;;-0.27;68.63;95609.63;5126057;27;20301;-63
2022/01/27 06:06:31;;;;;;;5.93;5.33;;;;;;;-0.23;68.39;95617.19;5135500;27;20215;-67
2022/01/27 06:08:57;;;;;;;6.00;5.27;;;;;;;-0.32;68.95;95602.13;5125964;28;20199;-63
2022/01/27 06:11:22;;;;;;;5.90;5.40;;;;;;;-0.17;68.75;95610.88;5123962;27;20229;-63
2022/01/27 06:13:48;;;;;;;7.13;6.17;;;;;;;-0.16;68.23;95603.97;5125639;27;20267;-63
2022/01/27 06:16:14;;;;;;;6.20;5.60;;;;;;;-0.10;68.25;95614.88;5132958;27;20233;-64
2022/01/27 06:18:40;;;;;;;6.63;6.03;;;;;;;-0.07;68.16;95617.31;5131251;27;20229;-64
2022/01/27 06:21:07;;;;;;;6.77;6.03;;;;;;;-0.08;68.34;95619.94;5135072;27;20310;-65
2022/01/27 06:23:33;;;;;;;6.23;5.63;;;;;;;-0.17;68.48;95616.06;5133390;27;20243;-66
2022/01/27 06:25:59;;;;;;;6.03;5.43;;;;;;;-0.07;68.37;95622.47;5132039;27;20227;-62
2022/01/27 06:28:25;;;;;;;7.13;6.43;;;;;;;-0.02;68.06;95628.25;5129637;27;20230;-67
2022/01/27 06:30:50;;;;;;;7.87;7.07;;;;;;;-0.08;68.08;95633.72;5131666;27;20207;-62
2022/01/27 06:33:16;;;;;;;6.27;5.67;;;;;;;-0.10;68.73;95637.31;5124782;27;20206;-62
2022/01/27 06:35:41;;;;;;;6.20;5.60;;;;;;;-0.08;67.88;95631.16;5125893;27;20215;-62
2022/01/27 06:38:07;;;;;;;6.63;5.80;;;;;;;-0.17;68.50;95628.16;5125653;27;20226;-63
2022/01/27 06:40:33;;;;;;;6.60;5.93;;;;;;;-0.10;68.52;95630.38;5145029;27;20263;-61
2022/01/27 06:42:59;;;;;;;10.47;7.23;;;;;;;-0.01;67.95;95624.75;5134509;27;20310;-61
2022/01/27 06:45:24;;;;;;;6.70;6.00;;;;;;;-0.01;67.87;95627.34;5142080;27;20195;-62
2022/01/27 06:47:50;;;;;;;6.83;6.13;;;;;;;0.03;67.77;95629.78;5142352;27;20218;-62
2022/01/27 06:50:15;;;;;;;7.33;6.63;;;;;;;-0.06;68.23;95631.06;5133144;27;20264;-63
2022/01/27 06:52:41;;;;;;;7.70;5.90;;;;;;;-0.03;68.11;95633.50;5136204;27;20226;-62
2022/01/27 06:55:12;;;;;;;6.83;6.20;;;;;;;0.11;67.62;95625.09;5141161;27;20207;-62
2022/01/27 06:57:38;;;;;;;6.77;6.10;;;;;;;0.03;67.65;95625.47;5144306;27;20257;-62
2022/01/27 07:00:08;;;;;;;7.00;6.17;;;;;;;0.10;67.59;95624.25;5142475;27;20193;-63
2022/01/27 07:02:34;;;;;;;7.43;6.63;;;;;;;0.22;67.71;95634.00;5142933;27;20267;-61
2022/01/27 07:05:00;;;;;;;6.57;5.97;;;;;;;0.32;66.65;95629.25;5142435;27;20278;-61
2022/01/27 07:07:25;;;;;;;7.57;6.47;;;;;;;0.33;66.85;95636.06;5140990;27;20307;-62
2022/01/27 07:09:51;;;;;;;7.83;7.03;;;;;;;0.25;66.89;95634.78;5141367;27;20253;-62
2022/01/27 07:12:17;;;;;;;8.97;6.47;;;;;;;0.29;67.03;95633.72;5142034;27;20222;-61
2022/01/27 07:14:42;;;;;;;7.80;7.10;;;;;;;0.33;67.09;95636.06;5143108;27;20222;-62
2022/01/27 07:17:08;;;;;;;8.20;7.10;;;;;;;0.29;67.42;95639.72;5137170;27;20222;-62
2022/01/27 07:19:33;;;;;;;9.07;7.77;;;;;;;0.35;66.90;95634.25;5137582;27;20222;-62
2022/01/27 07:21:59;;;;;;;8.27;7.03;;;;;;;0.51;66.57;95647.28;5143106;27;20227;-62
2022/01/27 07:24:25;;;;;;;7.90;6.70;;;;;;;0.44;66.54;95648.50;5139132;27;20220;-61
2022/01/27 07:26:50;;;;;;;8.33;7.47;;;;;;;0.55;66.51;95650.56;5127669;27;20210;-61
2022/01/27 07:29:16;;;;;;;8.20;7.40;;;;;;;0.52;66.08;95654.13;5143355;27;20301;-63
2022/01/27 07:31:42;;;;;;;7.93;7.03;;;;;;;0.51;66.72;95649.88;5143835;27;20282;-61
2022/01/27 07:34:07;;;;;;;8.33;7.43;;;;;;;0.57;66.37;95646.97;5137604;27;20276;-64
2022/01/27 07:36:33;;;;;;;7.50;6.80;;;;;;;0.59;66.22;95645.16;5119973;28;20195;-62
2022/01/27 07:39:00;;;;;;;8.07;7.27;;;;;;;0.66;66.44;95640.50;5130633;27;20207;-63
2022/01/27 07:41:25;;;;;;;8.63;7.73;;;;;;;0.70;66.00;95644.63;5137343;27;20253;-62
2022/01/27 07:43:51;;;;;;;8.00;7.20;;;;;;;0.73;65.29;95639.28;5141635;27;20282;-65
2022/01/27 07:46:16;;;;;;;7.27;6.57;;;;;;;0.80;65.19;95639.81;5141219;27;20252;-63
2022/01/27 07:48:42;;;;;;;7.67;6.87;;;;;;;0.75;65.03;95636.59;5141942;27;20209;-63
2022/01/27 07:51:09;;;;;;;7.40;6.60;;;;;;;0.80;65.22;95640.66;5142708;27;20204;-63
2022/01/27 07:53:36;;;;;;;7.67;6.87;;;;;;;0.91;65.13;95650.47;5140538;27;20242;-63
2022/01/27 07:56:04;;;;;;;6.50;5.90;;;;;;;0.77;65.06;95648.56;5139841;27;20251;-62
2022/01/27 07:58:30;;;;;;;7.93;6.93;;;;;;;0.64;65.82;95653.53;5141950;27;20229;-62
2022/01/27 08:00:56;;;;;;;9.60;7.93;;;;;;;0.67;66.01;95660.31;5141186;27;21061;-61
2022/01/27 08:03:21;;;;;;;8.80;7.30;;;;;;;0.59;66.48;95663.28;5141406;27;20455;-62
2022/01/27 08:05:47;;;;;;;8.63;7.70;;;;;;;0.69;66.24;95647.28;5141124;27;20214;-62
2022/01/27 08:08:12;;;;;;;7.03;6.33;;;;;;;0.78;65.86;95655.44;5142980;27;20222;-64
2022/01/27 08:10:38;;;;;;;8.40;7.57;;;;;;;0.56;66.32;95645.31;5140765;27;20279;-61
2022/01/27 08:13:09;;;;;;;7.97;7.10;;;;;;;0.66;66.07;95667.22;5140721;27;20234;-64
2022/01/27 08:15:35;;;;;;;8.43;6.93;;;;;;;0.54;66.72;95656.66;5139989;27;20230;-60
2022/01/27 08:18:01;;;;;;;7.77;7.07;;;;;;;0.56;66.54;95659.97;5140735;27;20210;-62
2022/01/27 08:20:26;;;;;;;8.10;7.30;;;;;;;0.52;66.82;95666.22;5140434;27;20288;-62
2022/01/27 08:22:54;;;;;;;8.57;7.70;;;;;;;0.59;67.18;95660.69;5139983;27;20231;-62
2022/01/27 08:25:21;;;;;;;8.90;8.00;;;;;;;0.64;66.71;95655.25;5157089;27;20238;-62
2022/01/27 08:27:49;;;;;;;9.10;8.13;;;;;;;0.52;66.80;95656.72;5140967;27;20226;-64
2022/01/27 08:30:17;;;;;;;9.10;8.23;;;;;;;0.60;66.93;95669.28;5137451;27;20295;-65
2022/01/27 08:32:57;;;;;;;9.93;8.93;;;;;;;0.63;66.94;95663.94;5135136;27;20226;-66
2022/01/27 08:35:23;;;;;;;9.03;8.13;;;;;;;0.77;66.41;95664.09;5138639;27;20285;-62
2022/01/27 08:37:49;;;;;;;10.93;9.20;;;;;;;0.66;66.60;95677.56;5141534;27;20206;-62
2022/01/27 08:40:16;;;;;;;10.93;9.17;;;;;;;0.68;66.85;95669.72;5137882;27;20226;-64
2022/01/27 08:42:43;;;;;;;10.20;8.67;;;;;;;0.85;66.34;95669.72;5139236;27;20213;-63
2022/01/27 08:45:14;;;;;;;11.90;9.60;;;;;;;0.95;66.00;95669.28;5156589;27;20233;-64
2022/01/27 08:47:40;;;;;;;9.07;8.17;;;;;;;0.77;65.97;95678.78;5138130;27;20207;-65
2022/01/27 08:50:08;;;;;;;9.20;8.30;;;;;;;0.89;65.33;95665.25;5137831;27;20229;-63
2022/01/27 08:52:35;;;;;;;10.00;8.93;;;;;;;0.84;65.59;95665.47;5137349;27;20217;-61
2022/01/27 08:55:01;;;;;;;11.97;9.90;;;;;;;0.87;66.01;95669.66;5138945;27;20223;-61
2022/01/27 08:57:26;;;;;;;10.23;9.13;;;;;;;0.82;65.51;95679.41;5139895;27;20198;-63
2022/01/27 08:59:53;;;;;;;9.73;8.73;;;;;;;0.75;65.76;95665.06;5138270;27;20249;-66
2022/01/27 09:02:22;;;;;;;10.90;9.27;;;;;;;0.87;65.58;95669.66;5140908;27;20211;-61
2022/01/27 09:04:49;;;;;;;11.23;10.03;;;;;;;0.93;65.25;95668.50;5141072;27;20210;-63
2022/01/27 09:07:18;;;;;;;10.97;9.63;;;;;;;0.98;65.24;95674.28;5138653;27;20217;-62
2022/01/27 09:09:44;;;;;;;11.47;10.13;;;;;;;0.97;65.19;95683.00;5139927;27;20247;-61
2022/01/27 09:12:11;;;;;;;11.23;9.40;;;;;;;1.03;65.38;95687.84;5137089;27;20248;-62
2022/01/27 09:14:39;;;;;;;12.00;10.07;;;;;;;0.95;65.25;95684.81;5139673;27;20242;-61
2022/01/27 09:17:05;;;;;;;11.37;10.07;;;;;;;1.06;65.19;95683.34;5140107;27;20257;-63
2022/01/27 09:19:36;;;;;;;11.23;10.00;;;;;;;1.19;64.95;95662.84;5142829;27;20218;-61
2022/01/27 09:22:06;;;;;;;12.10;10.83;;;;;;;1.18;64.65;95670.72;5137075;27;20225;-62
2022/01/27 09:24:38;;;;;;;11.30;9.77;;;;;;;1.14;64.32;95677.78;5136533;27;20296;-61
2022/01/27 09:27:04;;;;;;;11.83;10.53;;;;;;;1.40;64.15;95681.63;5141262;27;20190;-65
2022/01/27 09:29:30;;;;;;;12.23;10.90;;;;;;;1.52;63.93;95681.00;5138685;27;20257;-62
2022/01/27 09:31:56;;;;;;;12.30;10.73;;;;;;;1.66;63.10;95674.25;5140446;27;20222;-64
2022/01/27 09:34:22;;;;;;;12.77;10.40;;;;;;;1.45;62.96;95679.63;5137804;27;20226;-64
2022/01/27 09:36:49;;;;;;;12.20;10.27;;;;;;;1.53;63.19;95663.69;5138621;27;20270;-64
2022/01/27 09:39:15;;;;;;;11.33;10.23;;;;;;;1.77;61.93;95664.13;5137793;27;20266;-64
2022/01/27 09:41:42;;;;;;;12.53;10.43;;;;;;;1.99;61.50;95664.63;5136296;28;20245;-67
2022/01/27 09:44:10;;;;;;;11.80;10.17;;;;;;;2.10;60.83;95658.84;5137862;27;20233;-62
2022/01/27 09:46:36;;;;;;;11.67;10.47;;;;;;;1.96;60.67;95651.00;5136930;27;20233;-66
2022/01/27 09:49:12;;;;;;;10.63;9.53;;;;;;;1.84;60.93;95644.69;5138000;27;20214;-62
2022/01/27 09:51:39;;;;;;;10.97;9.83;;;;;;;1.97;60.89;95645.72;5137782;27;20239;-66
2022/01/27 09:54:06;;;;;;;10.60;9.50;;;;;;;1.95;60.40;95650.16;5139856;27;20194;-63
2022/01/27 09:56:32;;;;;;;11.33;10.10;;;;;;;2.05;60.09;95647.88;5154691;27;20304;-62
2022/01/27 09:58:57;;;;;;;12.10;9.90;;;;;;;2.06;59.66;95641.78;5137467;28;20226;-65
2022/01/27 10:01:23;;;;;;;11.57;10.33;;;;;;;2.32;59.26;95639.47;5135691;27;20218;-62
2022/01/27 10:03:54;;;;;;;11.73;10.53;;;;;;;2.55;58.56;95652.00;5152281;27;22157;-63
2022/01/27 10:06:21;;;;;;;13.17;10.57;;;;;;;2.51;58.40;95640.09;5136788;27;20218;-61
2022/01/27 10:09:09;;;;;;;11.40;10.20;;;;;;;2.53;58.03;95632.25;5139331;27;20229;-64
2022/01/27 10:11:35;;;;;;;12.30;10.50;;;;;;;2.16;58.97;95637.75;5138912;27;20215;-63
2022/01/27 10:14:25;;;;;;;12.23;10.40;;;;;;;2.01;59.43;95635.19;5138520;28;20294;-61
2022/01/27 10:16:54;;;;;;;12.20;11.00;;;;;;;2.01;59.52;95642.97;5137718;27;20219;-62
2022/01/27 10:19:21;;;;;;;11.80;10.37;;;;;;;2.10;58.92;95638.09;5136476;27;20218;-64
2022/01/27 10:21:47;;;;;;;10.97;9.87;;;;;;;2.06;58.27;95639.19;5137842;27;20194;-63
2022/01/27 10:24:26;;;;;;;11.63;10.43;;;;;;;1.87;58.74;95638.50;5143708;27;20202;-63
2022/01/27 10:27:22;;;;;;;11.73;10.53;;;;;;;2.07;58.76;95643.47;5142248;27;20226;-63
2022/01/27 10:32:36;;;;;;;11.77;10.50;;;;;;;2.04;57.97;95640.19;5143778;27;20290;-61
2022/01/27 10:35:02;;;;;;;11.23;9.67;;;;;;;1.90;57.72;95626.25;5142822;27;20234;-63
2022/01/27 10:37:28;;;;;;;10.43;9.33;;;;;;;2.15;57.09;95630.06;5139855;27;20223;-63
2022/01/27 10:39:53;;;;;;;10.13;9.10;;;;;;;2.06;57.03;95634.00;5141691;27;20283;-62
2022/01/27 10:42:21;;;;;;;10.03;9.03;;;;;;;2.32;57.00;95629.09;5143206;27;20206;-62
2022/01/27 10:44:54;;;;;;;11.17;9.60;;;;;;;2.75;55.78;95622.28;5142740;27;20211;-62
2022/01/27 10:47:29;;;;;;;9.90;8.83;;;;;;;3.33;54.54;95618.00;5143090;27;20243;-62
2022/01/27 10:50:04;;;;;;;10.10;9.10;;;;;;;4.00;52.30;95619.94;5138683;27;20236;-61
2022/01/27 10:52:40;;;;;;;10.53;8.53;;;;;;;3.92;51.88;95623.88;5134392;27;20214;-61
2022/01/27 10:55:12;;;;;;;9.53;8.53;;;;;;;3.43;52.56;95615.69;5118446;28;20257;-62
2022/01/27 10:57:37;;;;;;;9.23;8.33;;;;;;;3.52;52.44;95608.13;5119348;27;20208;-62
2022/01/27 11:00:11;;;;;;;9.73;8.83;;;;;;;3.76;51.56;95615.34;5138016;27;20214;-61
2022/01/27 11:02:56;;;;;;;8.47;7.30;;;;;;;4.18;50.45;95606.59;5126193;27;20231;-62
2022/01/27 11:05:25;;;;;;;8.83;8.00;;;;;;;4.70;49.34;95601.53;5126003;27;20215;-62
2022/01/27 11:07:51;;;;;;;8.20;7.40;;;;;;;4.62;48.39;95589.00;5130540;27;20283;-63
2022/01/27 11:10:18;;;;;;;7.87;7.07;;;;;;;4.44;48.83;95598.88;5137586;27;20244;-61
2022/01/27 11:12:45;;;;;;;8.43;7.63;;;;;;;4.03;48.94;95597.16;5139423;27;20218;-61
2022/01/27 11:15:16;;;;;;;8.37;7.37;;;;;;;3.74;50.42;95599.84;5137193;27;20241;-61
2022/01/27 11:17:44;;;;;;;9.17;7.57;;;;;;;3.74;51.18;95592.06;5151741;27;20298;-62
2022/01/27 11:20:24;;;;;;;8.33;7.50;;;;;;;3.83;50.85;95584.59;5138107;27;20218;-62
2022/01/27 11:27:53;;;;;;;6.93;6.23;;;;;;;4.67;47.90;95579.13;5144102;27;20243;-62
2022/01/27 11:30:40;;;;;;;7.40;6.70;;;;;;;5.60;46.19;95576.28;5144350;27;20205;-61
2022/01/27 11:33:13;;;;;;;6.47;5.87;;;;;;;5.24;45.13;95563.09;5154194;27;20202;-62
2022/01/27 11:35:39;;;;;;;6.50;5.83;;;;;;;4.85;46.54;95574.47;5141343;27;20214;-63
2022/01/27 11:38:08;;;;;;;6.37;5.77;;;;;;;4.41;47.09;95567.81;5141921;27;20278;-63
2022/01/27 11:40:42;;;;;;;6.23;5.63;;;;;;;4.51;47.88;95570.66;5144282;27;20250;-62
2022/01/27 11:43:12;;;;;;;6.63;5.90;;;;;;;4.66;47.46;95563.63;5139135;27;20226;-62
2022/01/27 11:45:49;;;;;;;6.53;5.93;;;;;;;4.64;47.37;95571.50;5155694;27;20211;-62
2022/01/27 11:48:19;;;;;;;6.80;6.17;;;;;;;4.86;47.27;95582.19;5143299;27;20198;-63
2022/01/27 11:51:03;;;;;;;6.40;5.80;;;;;;;4.76;47.00;95575.09;5136443;27;20272;-63
2022/01/27 11:53:49;;;;;;;6.07;5.57;;;;;;;4.25;47.78;95570.63;5140591;27;20230;-65
2022/01/27 11:56:24;;;;;;;6.17;5.57;;;;;;;4.63;47.62;95559.44;5142955;27;20218;-62
2022/01/27 11:58:52;;;;;;;6.27;5.67;;;;;;;4.86;46.96;95569.16;5137714;27;20222;-63
2022/01/27 12:01:25;;;;;;;6.40;5.47;;;;;;;5.54;45.30;95564.50;5140690;27;20218;-65
2022/01/27 12:04:02;;;;;;;5.80;4.77;;;;;;;5.87;43.24;95566.50;5140501;27;20219;-63
2022/01/27 12:06:28;;;;;;;5.77;4.93;;;;;;;5.52;44.14;95562.00;5140888;27;20213;-63
2022/01/27 12:09:19;;;;;;;5.53;5.10;;;;;;;5.31;44.02;95569.53;5139695;27;20230;-63
2022/01/27 12:11:55;;;;;;;6.23;5.43;;;;;;;4.78;45.42;95568.81;5142571;27;20245;-62
2022/01/27 12:14:28;;;;;;;6.67;5.63;;;;;;;5.31;44.43;95556.50;5139243;27;20222;-65
2022/01/27 12:17:08;;;;;;;5.63;5.13;;;;;;;6.98;40.64;95548.78;5156070;27;20272;-62
2022/01/27 12:20:00;;;;;;;6.50;5.90;;;;;;;9.04;36.39;95550.69;5153214;27;20294;-63
2022/01/27 12:22:50;;;;;;;5.97;4.90;;;;;;;10.02;33.45;95554.50;5153868;27;20392;-63
2022/01/27 12:25:16;;;;;;;6.17;4.60;;;;;;;10.22;32.47;95531.75;5145930;27;20222;-64